sensor_id;sensor_type;location;lat;lon;timestamp;temperature;humidity
38263;DHT22;24054;50.128;19.730;2022-10-13T00:02:02;21.90;54.90
38263;DHT22;24054;50.128;19.730;2022-10-13T00:04:29;21.90;54.90
38263;DHT22;24054;50.128;19.730;2022-10-13T00:06:56;21.90;54.90
38263;DHT22;24054;50.128;19.730;2022-10-13T00:09:23;21.90;54.90
38263;DHT22;24054;50.128;19.730;2022-10-13T00:11:50;21.80;54.90
38263;DHT22;24054;50.128;19.730;2022-10-13T00:14:17;21.80;54.90
38263;DHT22;24054;50.128;19.730;2022-10-13T00:16:44;21.90;54.90
38263;DHT22;24054;50.128;19.730;2022-10-13T00:19:12;21.90;54.90
38263;DHT22;24054;50.128;19.730;2022-10-13T00:21:39;21.80;54.90
38263;DHT22;24054;50.128;19.730;2022-10-13T00:24:09;21.80;54.90
38263;DHT22;24054;50.128;19.730;2022-10-13T00:26:36;21.80;54.90
38263;DHT22;24054;50.128;19.730;2022-10-13T00:29:03;21.80;54.90
38263;DHT22;24054;50.128;19.730;2022-10-13T00:31:31;21.80;54.90
38263;DHT22;24054;50.128;19.730;2022-10-13T00:34:00;21.80;54.90
38263;DHT22;24054;50.128;19.730;2022-10-13T00:36:29;21.80;54.90
38263;DHT22;24054;50.128;19.730;2022-10-13T00:38:57;21.80;54.90
38263;DHT22;24054;50.128;19.730;2022-10-13T00:41:24;21.80;54.90
38263;DHT22;24054;50.128;19.730;2022-10-13T00:43:54;21.80;54.90
38263;DHT22;24054;50.128;19.730;2022-10-13T00:46:23;21.80;54.90
38263;DHT22;24054;50.128;19.730;2022-10-13T00:48:51;21.80;54.90
38263;DHT22;24054;50.128;19.730;2022-10-13T00:51:21;21.80;54.90
38263;DHT22;24054;50.128;19.730;2022-10-13T00:53:52;21.80;54.90
38263;DHT22;24054;50.128;19.730;2022-10-13T00:56:20;21.80;54.90
38263;DHT22;24054;50.128;19.730;2022-10-13T00:58:49;21.80;55.00
38263;DHT22;24054;50.128;19.730;2022-10-13T01:01:17;21.70;54.90
38263;DHT22;24054;50.128;19.730;2022-10-13T01:03:44;21.70;54.90
38263;DHT22;24054;50.128;19.730;2022-10-13T01:06:11;21.70;54.90
38263;DHT22;24054;50.128;19.730;2022-10-13T01:08:39;21.70;54.90
38263;DHT22;24054;50.128;19.730;2022-10-13T01:11:20;21.70;54.90
38263;DHT22;24054;50.128;19.730;2022-10-13T01:13:55;21.70;55.40
38263;DHT22;24054;50.128;19.730;2022-10-13T01:16:27;21.70;54.90
38263;DHT22;24054;50.128;19.730;2022-10-13T01:19:05;21.70;54.80
38263;DHT22;24054;50.128;19.730;2022-10-13T01:21:41;21.70;54.90
38263;DHT22;24054;50.128;19.730;2022-10-13T01:24:41;21.60;54.80
38263;DHT22;24054;50.128;19.730;2022-10-13T01:27:25;21.70;54.90
38263;DHT22;24054;50.128;19.730;2022-10-13T01:30:11;21.70;54.90
38263;DHT22;24054;50.128;19.730;2022-10-13T01:35:44;21.70;54.90
38263;DHT22;24054;50.128;19.730;2022-10-13T01:38:23;21.60;54.80
38263;DHT22;24054;50.128;19.730;2022-10-13T01:40:56;21.60;54.80
38263;DHT22;24054;50.128;19.730;2022-10-13T01:43:27;21.60;54.80
38263;DHT22;24054;50.128;19.730;2022-10-13T01:46:01;21.60;54.70
38263;DHT22;24054;50.128;19.730;2022-10-13T01:48:29;21.60;54.80
38263;DHT22;24054;50.128;19.730;2022-10-13T01:50:58;21.60;54.80
38263;DHT22;24054;50.128;19.730;2022-10-13T01:53:25;21.60;54.70
38263;DHT22;24054;50.128;19.730;2022-10-13T01:55:55;21.60;54.90
38263;DHT22;24054;50.128;19.730;2022-10-13T01:58:24;21.60;54.70
38263;DHT22;24054;50.128;19.730;2022-10-13T02:01:05;21.60;55.40
38263;DHT22;24054;50.128;19.730;2022-10-13T02:03:45;21.60;54.80
38263;DHT22;24054;50.128;19.730;2022-10-13T02:06:20;21.60;54.80
38263;DHT22;24054;50.128;19.730;2022-10-13T02:08:54;21.60;54.80
38263;DHT22;24054;50.128;19.730;2022-10-13T02:11:24;21.50;54.70
38263;DHT22;24054;50.128;19.730;2022-10-13T02:13:59;21.60;54.80
38263;DHT22;24054;50.128;19.730;2022-10-13T02:16:33;21.60;54.70
38263;DHT22;24054;50.128;19.730;2022-10-13T02:19:02;21.60;54.70
38263;DHT22;24054;50.128;19.730;2022-10-13T02:21:30;21.60;54.70
38263;DHT22;24054;50.128;19.730;2022-10-13T02:23:57;21.60;54.70
38263;DHT22;24054;50.128;19.730;2022-10-13T02:26:24;21.50;54.70
38263;DHT22;24054;50.128;19.730;2022-10-13T02:28:52;21.60;55.40
38263;DHT22;24054;50.128;19.730;2022-10-13T02:31:19;21.60;54.70
38263;DHT22;24054;50.128;19.730;2022-10-13T02:33:48;21.60;55.30
38263;DHT22;24054;50.128;19.730;2022-10-13T02:36:14;21.50;54.70
38263;DHT22;24054;50.128;19.730;2022-10-13T02:38:41;21.50;54.70
38263;DHT22;24054;50.128;19.730;2022-10-13T02:41:08;21.60;54.70
38263;DHT22;24054;50.128;19.730;2022-10-13T02:43:36;21.50;54.60
38263;DHT22;24054;50.128;19.730;2022-10-13T02:46:03;21.50;54.60
38263;DHT22;24054;50.128;19.730;2022-10-13T02:48:30;21.50;54.60
38263;DHT22;24054;50.128;19.730;2022-10-13T02:50:59;21.50;54.60
38263;DHT22;24054;50.128;19.730;2022-10-13T02:53:25;21.50;55.20
38263;DHT22;24054;50.128;19.730;2022-10-13T02:55:52;21.50;54.60
38263;DHT22;24054;50.128;19.730;2022-10-13T02:58:19;21.50;54.60
38263;DHT22;24054;50.128;19.730;2022-10-13T03:00:46;21.50;54.60
38263;DHT22;24054;50.128;19.730;2022-10-13T03:03:13;21.50;54.60
38263;DHT22;24054;50.128;19.730;2022-10-13T03:05:40;21.50;54.60
38263;DHT22;24054;50.128;19.730;2022-10-13T03:08:09;21.50;54.60
38263;DHT22;24054;50.128;19.730;2022-10-13T03:10:36;21.50;54.60
38263;DHT22;24054;50.128;19.730;2022-10-13T03:13:03;21.50;54.60
38263;DHT22;24054;50.128;19.730;2022-10-13T03:15:30;21.40;54.50
38263;DHT22;24054;50.128;19.730;2022-10-13T03:17:57;21.50;54.50
38263;DHT22;24054;50.128;19.730;2022-10-13T03:20:24;21.50;54.60
38263;DHT22;24054;50.128;19.730;2022-10-13T03:22:54;21.40;54.50
38263;DHT22;24054;50.128;19.730;2022-10-13T03:25:22;21.50;54.60
38263;DHT22;24054;50.128;19.730;2022-10-13T03:27:49;21.40;54.50
38263;DHT22;24054;50.128;19.730;2022-10-13T03:30:16;21.40;54.50
38263;DHT22;24054;50.128;19.730;2022-10-13T03:32:43;21.40;54.50
38263;DHT22;24054;50.128;19.730;2022-10-13T03:35:10;21.40;54.50
38263;DHT22;24054;50.128;19.730;2022-10-13T03:37:37;21.40;54.50
38263;DHT22;24054;50.128;19.730;2022-10-13T03:40:05;21.40;54.50
38263;DHT22;24054;50.128;19.730;2022-10-13T03:42:34;21.40;54.50
38263;DHT22;24054;50.128;19.730;2022-10-13T03:45:01;21.40;54.50
38263;DHT22;24054;50.128;19.730;2022-10-13T03:47:28;21.40;54.50
38263;DHT22;24054;50.128;19.730;2022-10-13T03:49:55;21.40;54.50
38263;DHT22;24054;50.128;19.730;2022-10-13T03:52:22;21.40;54.50
38263;DHT22;24054;50.128;19.730;2022-10-13T03:54:49;21.40;54.50
38263;DHT22;24054;50.128;19.730;2022-10-13T03:57:16;21.30;54.40
38263;DHT22;24054;50.128;19.730;2022-10-13T03:59:44;21.40;54.50
38263;DHT22;24054;50.128;19.730;2022-10-13T04:02:11;21.40;54.50
38263;DHT22;24054;50.128;19.730;2022-10-13T04:04:38;21.30;54.40
38263;DHT22;24054;50.128;19.730;2022-10-13T04:07:06;21.30;54.50
38263;DHT22;24054;50.128;19.730;2022-10-13T04:09:33;21.30;54.40
38263;DHT22;24054;50.128;19.730;2022-10-13T04:12:00;21.30;54.40
38263;DHT22;24054;50.128;19.730;2022-10-13T04:14:27;21.30;54.40
38263;DHT22;24054;50.128;19.730;2022-10-13T04:16:56;21.30;54.40
38263;DHT22;24054;50.128;19.730;2022-10-13T04:19:23;21.30;54.40
38263;DHT22;24054;50.128;19.730;2022-10-13T04:21:50;21.30;54.40
38263;DHT22;24054;50.128;19.730;2022-10-13T04:24:17;21.30;54.40
38263;DHT22;24054;50.128;19.730;2022-10-13T04:26:44;21.30;54.40
38263;DHT22;24054;50.128;19.730;2022-10-13T04:29:12;21.30;54.40
38263;DHT22;24054;50.128;19.730;2022-10-13T04:31:40;21.30;54.40
38263;DHT22;24054;50.128;19.730;2022-10-13T04:34:09;21.30;54.40
38263;DHT22;24054;50.128;19.730;2022-10-13T04:36:37;21.30;54.40
38263;DHT22;24054;50.128;19.730;2022-10-13T04:39:04;21.30;54.30
38263;DHT22;24054;50.128;19.730;2022-10-13T04:41:31;21.30;54.30
38263;DHT22;24054;50.128;19.730;2022-10-13T04:43:58;21.30;54.30
38263;DHT22;24054;50.128;19.730;2022-10-13T04:46:27;21.20;54.30
38263;DHT22;24054;50.128;19.730;2022-10-13T04:48:54;21.30;54.30
38263;DHT22;24054;50.128;19.730;2022-10-13T04:51:23;21.30;54.30
38263;DHT22;24054;50.128;19.730;2022-10-13T04:53:55;21.30;54.30
38263;DHT22;24054;50.128;19.730;2022-10-13T04:56:22;21.20;54.30
38263;DHT22;24054;50.128;19.730;2022-10-13T04:58:49;21.20;54.30
38263;DHT22;24054;50.128;19.730;2022-10-13T05:01:18;21.20;54.30
38263;DHT22;24054;50.128;19.730;2022-10-13T05:03:46;21.20;54.30
38263;DHT22;24054;50.128;19.730;2022-10-13T05:06:17;21.20;54.30
38263;DHT22;24054;50.128;19.730;2022-10-13T05:08:46;21.20;54.30
38263;DHT22;24054;50.128;19.730;2022-10-13T05:11:13;21.20;54.90
38263;DHT22;24054;50.128;19.730;2022-10-13T05:13:40;21.20;54.20
38263;DHT22;24054;50.128;19.730;2022-10-13T05:16:08;21.30;54.30
38263;DHT22;24054;50.128;19.730;2022-10-13T05:18:36;21.30;54.30
38263;DHT22;24054;50.128;19.730;2022-10-13T05:21:07;21.40;54.40
38263;DHT22;24054;50.128;19.730;2022-10-13T05:23:34;21.40;54.30
38263;DHT22;24054;50.128;19.730;2022-10-13T05:26:03;21.40;54.40
38263;DHT22;24054;50.128;19.730;2022-10-13T05:28:35;21.50;54.40
38263;DHT22;24054;50.128;19.730;2022-10-13T05:31:09;21.50;54.30
38263;DHT22;24054;50.128;19.730;2022-10-13T05:33:36;21.60;54.30
38263;DHT22;24054;50.128;19.730;2022-10-13T05:36:05;21.60;54.20
38263;DHT22;24054;50.128;19.730;2022-10-13T05:38:33;21.60;54.20
38263;DHT22;24054;50.128;19.730;2022-10-13T05:41:06;21.70;54.10
38263;DHT22;24054;50.128;19.730;2022-10-13T05:43:35;21.70;54.10
38263;DHT22;24054;50.128;19.730;2022-10-13T05:46:03;21.80;54.10
38263;DHT22;24054;50.128;19.730;2022-10-13T05:48:31;21.80;54.00
38263;DHT22;24054;50.128;19.730;2022-10-13T05:51:00;21.80;53.90
38263;DHT22;24054;50.128;19.730;2022-10-13T05:53:31;21.90;54.00
38263;DHT22;24054;50.128;19.730;2022-10-13T05:56:03;21.90;54.10
38263;DHT22;24054;50.128;19.730;2022-10-13T05:58:33;22.00;54.70
38263;DHT22;24054;50.128;19.730;2022-10-13T06:01:05;22.40;55.00
38263;DHT22;24054;50.128;19.730;2022-10-13T06:03:34;22.00;54.70
38263;DHT22;24054;50.128;19.730;2022-10-13T06:06:01;22.10;54.70
38263;DHT22;24054;50.128;19.730;2022-10-13T06:08:29;22.10;54.80
38263;DHT22;24054;50.128;19.730;2022-10-13T06:10:56;22.10;55.20
38263;DHT22;24054;50.128;19.730;2022-10-13T06:13:23;22.20;55.10
38263;DHT22;24054;50.128;19.730;2022-10-13T06:15:51;22.20;55.00
38263;DHT22;24054;50.128;19.730;2022-10-13T06:18:18;22.20;55.00
38263;DHT22;24054;50.128;19.730;2022-10-13T06:20:46;22.20;55.00
38263;DHT22;24054;50.128;19.730;2022-10-13T06:23:13;22.30;55.00
38263;DHT22;24054;50.128;19.730;2022-10-13T06:25:46;22.30;54.90
38263;DHT22;24054;50.128;19.730;2022-10-13T06:28:13;22.40;54.90
38263;DHT22;24054;50.128;19.730;2022-10-13T06:30:40;22.30;54.80
38263;DHT22;24054;50.128;19.730;2022-10-13T06:33:12;22.40;54.90
38263;DHT22;24054;50.128;19.730;2022-10-13T06:35:40;22.50;54.90
38263;DHT22;24054;50.128;19.730;2022-10-13T06:38:07;22.40;54.80
38263;DHT22;24054;50.128;19.730;2022-10-13T06:40:35;22.50;54.80
38263;DHT22;24054;50.128;19.730;2022-10-13T06:43:02;22.50;54.70
38263;DHT22;24054;50.128;19.730;2022-10-13T06:45:29;22.50;54.60
38263;DHT22;24054;50.128;19.730;2022-10-13T06:47:56;22.50;54.50
38263;DHT22;24054;50.128;19.730;2022-10-13T06:50:25;22.50;54.50
38263;DHT22;24054;50.128;19.730;2022-10-13T06:52:53;22.60;54.40
38263;DHT22;24054;50.128;19.730;2022-10-13T06:55:20;22.60;54.40
38263;DHT22;24054;50.128;19.730;2022-10-13T06:57:47;22.60;54.30
38263;DHT22;24054;50.128;19.730;2022-10-13T07:00:15;22.70;54.30
38263;DHT22;24054;50.128;19.730;2022-10-13T07:02:42;22.70;54.20
38263;DHT22;24054;50.128;19.730;2022-10-13T07:05:09;22.70;54.00
38263;DHT22;24054;50.128;19.730;2022-10-13T07:07:37;22.80;53.80
38263;DHT22;24054;50.128;19.730;2022-10-13T07:10:05;22.80;53.70
38263;DHT22;24054;50.128;19.730;2022-10-13T07:12:35;22.90;53.80
38263;DHT22;24054;50.128;19.730;2022-10-13T07:15:02;22.90;53.50
38263;DHT22;24054;50.128;19.730;2022-10-13T07:17:29;23.00;53.50
38263;DHT22;24054;50.128;19.730;2022-10-13T07:19:56;23.00;53.40
38263;DHT22;24054;50.128;19.730;2022-10-13T07:22:23;23.00;53.30
38263;DHT22;24054;50.128;19.730;2022-10-13T07:24:52;23.10;53.90
38263;DHT22;24054;50.128;19.730;2022-10-13T07:27:21;23.10;53.20
38263;DHT22;24054;50.128;19.730;2022-10-13T07:29:49;23.20;53.20
38263;DHT22;24054;50.128;19.730;2022-10-13T07:32:16;23.20;53.20
38263;DHT22;24054;50.128;19.730;2022-10-13T07:34:43;23.20;53.20
38263;DHT22;24054;50.128;19.730;2022-10-13T07:37:11;23.30;53.40
38263;DHT22;24054;50.128;19.730;2022-10-13T07:39:39;23.30;53.60
38263;DHT22;24054;50.128;19.730;2022-10-13T07:42:08;23.30;53.80
38263;DHT22;24054;50.128;19.730;2022-10-13T07:44:35;23.30;53.90
38263;DHT22;24054;50.128;19.730;2022-10-13T07:47:03;23.40;54.00
38263;DHT22;24054;50.128;19.730;2022-10-13T07:49:31;23.40;54.00
38263;DHT22;24054;50.128;19.730;2022-10-13T07:51:58;23.50;54.00
38263;DHT22;24054;50.128;19.730;2022-10-13T07:54:25;23.60;54.00
38263;DHT22;24054;50.128;19.730;2022-10-13T07:56:54;23.70;54.20
38263;DHT22;24054;50.128;19.730;2022-10-13T07:59:23;23.90;54.40
38263;DHT22;24054;50.128;19.730;2022-10-13T08:01:51;23.90;54.80
38263;DHT22;24054;50.128;19.730;2022-10-13T08:04:18;24.00;54.90
38263;DHT22;24054;50.128;19.730;2022-10-13T08:06:46;24.00;55.00
38263;DHT22;24054;50.128;19.730;2022-10-13T08:09:13;24.10;55.00
38263;DHT22;24054;50.128;19.730;2022-10-13T08:11:40;24.20;55.10
38263;DHT22;24054;50.128;19.730;2022-10-13T08:14:09;24.30;55.10
38263;DHT22;24054;50.128;19.730;2022-10-13T08:16:40;24.30;55.20
38263;DHT22;24054;50.128;19.730;2022-10-13T08:19:10;24.30;55.20
38263;DHT22;24054;50.128;19.730;2022-10-13T08:21:37;24.40;55.10
38263;DHT22;24054;50.128;19.730;2022-10-13T08:24:05;24.50;55.10
38263;DHT22;24054;50.128;19.730;2022-10-13T08:26:34;24.50;55.10
38263;DHT22;24054;50.128;19.730;2022-10-13T08:29:01;24.60;54.90
38263;DHT22;24054;50.128;19.730;2022-10-13T08:31:28;24.70;55.00
38263;DHT22;24054;50.128;19.730;2022-10-13T08:33:57;24.70;54.80
38263;DHT22;24054;50.128;19.730;2022-10-13T08:36:24;24.60;53.40
38263;DHT22;24054;50.128;19.730;2022-10-13T08:38:55;24.50;51.90
38263;DHT22;24054;50.128;19.730;2022-10-13T08:41:24;24.40;50.80
38263;DHT22;24054;50.128;19.730;2022-10-13T08:43:53;24.40;49.20
38263;DHT22;24054;50.128;19.730;2022-10-13T08:46:31;24.30;48.40
38263;DHT22;24054;50.128;19.730;2022-10-13T08:49:01;24.30;48.40
38263;DHT22;24054;50.128;19.730;2022-10-13T08:51:28;24.30;48.20
38263;DHT22;24054;50.128;19.730;2022-10-13T08:53:56;24.30;48.60
38263;DHT22;24054;50.128;19.730;2022-10-13T08:56:26;24.20;48.10
38263;DHT22;24054;50.128;19.730;2022-10-13T08:58:54;24.20;48.10
38263;DHT22;24054;50.128;19.730;2022-10-13T09:01:23;24.10;47.70
38263;DHT22;24054;50.128;19.730;2022-10-13T09:03:54;24.20;47.80
38263;DHT22;24054;50.128;19.730;2022-10-13T09:06:24;24.20;47.00
38263;DHT22;24054;50.128;19.730;2022-10-13T09:08:55;24.20;47.20
38263;DHT22;24054;50.128;19.730;2022-10-13T09:11:25;24.20;47.60
38263;DHT22;24054;50.128;19.730;2022-10-13T09:13:54;24.20;47.70
38263;DHT22;24054;50.128;19.730;2022-10-13T09:16:27;24.20;47.40
38263;DHT22;24054;50.128;19.730;2022-10-13T09:18:54;24.20;47.20
38263;DHT22;24054;50.128;19.730;2022-10-13T09:21:24;24.20;47.50
38263;DHT22;24054;50.128;19.730;2022-10-13T09:23:51;24.30;47.00
38263;DHT22;24054;50.128;19.730;2022-10-13T09:26:23;24.30;47.10
38263;DHT22;24054;50.128;19.730;2022-10-13T09:28:51;24.30;47.00
38263;DHT22;24054;50.128;19.730;2022-10-13T09:31:22;24.30;46.90
38263;DHT22;24054;50.128;19.730;2022-10-13T09:33:57;24.30;46.80
38263;DHT22;24054;50.128;19.730;2022-10-13T09:36:27;24.40;47.70
38263;DHT22;24054;50.128;19.730;2022-10-13T09:39:07;24.30;46.80
38263;DHT22;24054;50.128;19.730;2022-10-13T09:41:36;24.40;46.90
38263;DHT22;24054;50.128;19.730;2022-10-13T09:44:11;24.40;46.60
38263;DHT22;24054;50.128;19.730;2022-10-13T09:46:47;24.40;46.40
38263;DHT22;24054;50.128;19.730;2022-10-13T09:49:30;24.40;45.80
38263;DHT22;24054;50.128;19.730;2022-10-13T09:52:02;24.40;46.00
38263;DHT22;24054;50.128;19.730;2022-10-13T09:54:39;24.50;45.80
38263;DHT22;24054;50.128;19.730;2022-10-13T09:57:15;24.40;45.40
38263;DHT22;24054;50.128;19.730;2022-10-13T09:59:47;24.30;43.10
38263;DHT22;24054;50.128;19.730;2022-10-13T10:02:22;24.10;43.70
38263;DHT22;24054;50.128;19.730;2022-10-13T10:04:51;24.00;43.50
38263;DHT22;24054;50.128;19.730;2022-10-13T10:07:24;24.00;43.00
38263;DHT22;24054;50.128;19.730;2022-10-13T10:09:54;23.80;42.40
38263;DHT22;24054;50.128;19.730;2022-10-13T10:12:26;23.80;42.60
38263;DHT22;24054;50.128;19.730;2022-10-13T10:14:54;23.70;44.90
38263;DHT22;24054;50.128;19.730;2022-10-13T10:17:29;23.80;45.50
38263;DHT22;24054;50.128;19.730;2022-10-13T10:20:08;24.10;45.10
38263;DHT22;24054;50.128;19.730;2022-10-13T10:22:46;24.40;45.10
38263;DHT22;24054;50.128;19.730;2022-10-13T10:25:24;24.50;45.10
38263;DHT22;24054;50.128;19.730;2022-10-13T10:28:16;24.70;45.10
38263;DHT22;24054;50.128;19.730;2022-10-13T10:30:47;24.90;45.20
38263;DHT22;24054;50.128;19.730;2022-10-13T10:33:20;25.10;45.30
38263;DHT22;24054;50.128;19.730;2022-10-13T10:35:51;25.00;46.00
38263;DHT22;24054;50.128;19.730;2022-10-13T10:38:32;25.10;46.90
38263;DHT22;24054;50.128;19.730;2022-10-13T10:41:06;25.10;47.40
38263;DHT22;24054;50.128;19.730;2022-10-13T10:43:49;25.10;47.80
38263;DHT22;24054;50.128;19.730;2022-10-13T10:46:20;25.10;48.10
38263;DHT22;24054;50.128;19.730;2022-10-13T10:48:51;25.20;48.30
38263;DHT22;24054;50.128;19.730;2022-10-13T10:51:22;25.30;48.50
38263;DHT22;24054;50.128;19.730;2022-10-13T10:53:59;25.30;48.50
38263;DHT22;24054;50.128;19.730;2022-10-13T10:56:33;25.40;48.70
38263;DHT22;24054;50.128;19.730;2022-10-13T10:59:11;25.40;48.70
38263;DHT22;24054;50.128;19.730;2022-10-13T11:01:44;25.50;48.90
38263;DHT22;24054;50.128;19.730;2022-10-13T11:04:38;25.50;48.90
38263;DHT22;24054;50.128;19.730;2022-10-13T11:07:11;25.60;49.70
38263;DHT22;24054;50.128;19.730;2022-10-13T11:10:14;25.60;49.10
38263;DHT22;24054;50.128;19.730;2022-10-13T11:15:46;25.70;49.20
38263;DHT22;24054;50.128;19.730;2022-10-13T11:21:18;25.70;49.10
38263;DHT22;24054;50.128;19.730;2022-10-13T11:23:46;25.80;49.10
38263;DHT22;24054;50.128;19.730;2022-10-13T11:26:30;25.80;49.20
38263;DHT22;24054;50.128;19.730;2022-10-13T11:28:58;25.80;49.30
38263;DHT22;24054;50.128;19.730;2022-10-13T11:31:30;25.80;49.30
38263;DHT22;24054;50.128;19.730;2022-10-13T11:33:59;25.90;49.40
38263;DHT22;24054;50.128;19.730;2022-10-13T11:36:45;25.90;49.40
38263;DHT22;24054;50.128;19.730;2022-10-13T11:45:55;25.90;49.30
38263;DHT22;24054;50.128;19.730;2022-10-13T11:49:02;25.90;49.30
38263;DHT22;24054;50.128;19.730;2022-10-13T11:51:39;25.90;49.40
38263;DHT22;24054;50.128;19.730;2022-10-13T11:54:21;25.90;49.50
38263;DHT22;24054;50.128;19.730;2022-10-13T11:56:51;26.00;49.80
38263;DHT22;24054;50.128;19.730;2022-10-13T11:59:24;26.00;49.90
38263;DHT22;24054;50.128;19.730;2022-10-13T12:01:55;26.10;50.10
38263;DHT22;24054;50.128;19.730;2022-10-13T12:04:25;26.00;50.20
38263;DHT22;24054;50.128;19.730;2022-10-13T12:06:56;26.10;50.50
38263;DHT22;24054;50.128;19.730;2022-10-13T12:09:24;26.00;50.50
38263;DHT22;24054;50.128;19.730;2022-10-13T12:12:00;26.00;50.70
38263;DHT22;24054;50.128;19.730;2022-10-13T12:14:37;26.00;50.80
38263;DHT22;24054;50.128;19.730;2022-10-13T12:17:19;26.10;51.00
38263;DHT22;24054;50.128;19.730;2022-10-13T12:19:47;26.10;51.20
38263;DHT22;24054;50.128;19.730;2022-10-13T12:22:14;26.00;51.20
38263;DHT22;24054;50.128;19.730;2022-10-13T12:24:41;26.00;51.40
38263;DHT22;24054;50.128;19.730;2022-10-13T12:27:09;26.00;51.60
38263;DHT22;24054;50.128;19.730;2022-10-13T12:29:39;26.00;51.70
38263;DHT22;24054;50.128;19.730;2022-10-13T12:32:17;26.00;51.90
38263;DHT22;24054;50.128;19.730;2022-10-13T12:34:45;26.00;52.10
38263;DHT22;24054;50.128;19.730;2022-10-13T12:37:24;26.00;52.20
38263;DHT22;24054;50.128;19.730;2022-10-13T12:39:52;26.00;52.30
38263;DHT22;24054;50.128;19.730;2022-10-13T12:42:23;25.90;52.30
38263;DHT22;24054;50.128;19.730;2022-10-13T12:44:53;26.00;52.60
38263;DHT22;24054;50.128;19.730;2022-10-13T12:47:36;26.00;52.70
38263;DHT22;24054;50.128;19.730;2022-10-13T12:50:31;25.90;52.80
38263;DHT22;24054;50.128;19.730;2022-10-13T12:53:14;25.90;52.90
38263;DHT22;24054;50.128;19.730;2022-10-13T12:56:00;25.90;52.80
38263;DHT22;24054;50.128;19.730;2022-10-13T12:58:30;25.90;53.00
38263;DHT22;24054;50.128;19.730;2022-10-13T13:01:05;25.80;53.10
38263;DHT22;24054;50.128;19.730;2022-10-13T13:03:34;25.80;53.20
38263;DHT22;24054;50.128;19.730;2022-10-13T13:06:08;25.80;53.10
38263;DHT22;24054;50.128;19.730;2022-10-13T13:08:36;25.70;53.10
38263;DHT22;24054;50.128;19.730;2022-10-13T13:11:04;25.60;53.20
38263;DHT22;24054;50.128;19.730;2022-10-13T13:13:33;25.60;53.20
38263;DHT22;24054;50.128;19.730;2022-10-13T13:16:17;25.60;53.40
38263;DHT22;24054;50.128;19.730;2022-10-13T13:18:45;25.60;53.60
38263;DHT22;24054;50.128;19.730;2022-10-13T13:21:14;25.60;53.60
38263;DHT22;24054;50.128;19.730;2022-10-13T13:23:42;25.50;53.50
38263;DHT22;24054;50.128;19.730;2022-10-13T13:26:12;25.50;53.70
38263;DHT22;24054;50.128;19.730;2022-10-13T13:28:43;25.50;53.80
38263;DHT22;24054;50.128;19.730;2022-10-13T13:31:14;25.50;53.90
38263;DHT22;24054;50.128;19.730;2022-10-13T13:33:43;25.50;54.00
38263;DHT22;24054;50.128;19.730;2022-10-13T13:36:14;25.40;53.90
38263;DHT22;24054;50.128;19.730;2022-10-13T13:38:42;25.40;54.00
38263;DHT22;24054;50.128;19.730;2022-10-13T13:41:10;25.40;54.10
38263;DHT22;24054;50.128;19.730;2022-10-13T13:43:38;25.40;54.10
38263;DHT22;24054;50.128;19.730;2022-10-13T13:46:06;25.30;54.10
38263;DHT22;24054;50.128;19.730;2022-10-13T13:48:38;25.40;54.40
38263;DHT22;24054;50.128;19.730;2022-10-13T13:51:07;25.30;54.60
38263;DHT22;24054;50.128;19.730;2022-10-13T13:53:34;25.30;54.70
38263;DHT22;24054;50.128;19.730;2022-10-13T13:56:01;25.30;54.90
38263;DHT22;24054;50.128;19.730;2022-10-13T13:58:28;25.30;54.30
38263;DHT22;24054;50.128;19.730;2022-10-13T14:00:55;25.30;50.70
38263;DHT22;24054;50.128;19.730;2022-10-13T14:03:24;25.10;51.20
38263;DHT22;24054;50.128;19.730;2022-10-13T14:05:51;25.10;51.00
38263;DHT22;24054;50.128;19.730;2022-10-13T14:08:20;25.10;50.80
38263;DHT22;24054;50.128;19.730;2022-10-13T14:10:47;25.10;50.90
38263;DHT22;24054;50.128;19.730;2022-10-13T14:13:14;25.10;51.10
38263;DHT22;24054;50.128;19.730;2022-10-13T14:15:41;25.20;51.30
38263;DHT22;24054;50.128;19.730;2022-10-13T14:18:08;25.10;51.70
38263;DHT22;24054;50.128;19.730;2022-10-13T14:20:39;25.10;52.40
38263;DHT22;24054;50.128;19.730;2022-10-13T14:23:06;25.10;52.90
38263;DHT22;24054;50.128;19.730;2022-10-13T14:25:37;25.10;53.20
38263;DHT22;24054;50.128;19.730;2022-10-13T14:28:04;25.00;53.50
38263;DHT22;24054;50.128;19.730;2022-10-13T14:30:31;25.00;53.80
38263;DHT22;24054;50.128;19.730;2022-10-13T14:32:58;24.90;53.90
38263;DHT22;24054;50.128;19.730;2022-10-13T14:35:26;24.90;54.10
38263;DHT22;24054;50.128;19.730;2022-10-13T14:37:53;24.90;54.20
38263;DHT22;24054;50.128;19.730;2022-10-13T14:40:20;24.90;54.40
38263;DHT22;24054;50.128;19.730;2022-10-13T14:42:49;24.80;54.60
38263;DHT22;24054;50.128;19.730;2022-10-13T14:45:16;24.80;54.50
38263;DHT22;24054;50.128;19.730;2022-10-13T14:47:43;24.70;54.40
38263;DHT22;24054;50.128;19.730;2022-10-13T14:50:10;24.80;54.50
38263;DHT22;24054;50.128;19.730;2022-10-13T14:52:37;24.70;54.60
38263;DHT22;24054;50.128;19.730;2022-10-13T14:55:04;24.70;54.70
38263;DHT22;24054;50.128;19.730;2022-10-13T14:57:31;24.60;54.80
38263;DHT22;24054;50.128;19.730;2022-10-13T15:00:00;24.60;54.90
38263;DHT22;24054;50.128;19.730;2022-10-13T15:02:27;24.60;54.90
38263;DHT22;24054;50.128;19.730;2022-10-13T15:04:54;24.60;55.00
38263;DHT22;24054;50.128;19.730;2022-10-13T15:07:22;24.60;55.00
38263;DHT22;24054;50.128;19.730;2022-10-13T15:09:49;24.50;55.10
38263;DHT22;24054;50.128;19.730;2022-10-13T15:12:16;24.50;55.20
38263;DHT22;24054;50.128;19.730;2022-10-13T15:14:43;24.50;55.30
38263;DHT22;24054;50.128;19.730;2022-10-13T15:17:11;24.40;55.30
38263;DHT22;24054;50.128;19.730;2022-10-13T15:19:38;24.40;55.30
38263;DHT22;24054;50.128;19.730;2022-10-13T15:22:05;24.40;55.40
38263;DHT22;24054;50.128;19.730;2022-10-13T15:24:32;24.30;55.30
38263;DHT22;24054;50.128;19.730;2022-10-13T15:27:00;24.30;55.20
38263;DHT22;24054;50.128;19.730;2022-10-13T15:29:27;24.30;55.10
38263;DHT22;24054;50.128;19.730;2022-10-13T15:32:06;24.30;55.30
38263;DHT22;24054;50.128;19.730;2022-10-13T15:34:37;24.30;55.40
38263;DHT22;24054;50.128;19.730;2022-10-13T15:37:04;24.20;55.50
38263;DHT22;24054;50.128;19.730;2022-10-13T15:39:31;24.20;55.60
38263;DHT22;24054;50.128;19.730;2022-10-13T15:41:59;24.20;55.70
38263;DHT22;24054;50.128;19.730;2022-10-13T15:44:26;24.20;55.80
38263;DHT22;24054;50.128;19.730;2022-10-13T15:46:53;24.10;55.90
38263;DHT22;24054;50.128;19.730;2022-10-13T15:49:22;24.10;56.10